Time;durP1;ratioP1;P1;durP2;ratioP2;P2;SDS_P1;SDS_P2;PMS_P1;PMS_P2;Temp;Humidity;BMP_temperature;BMP_pressure;BME280_temperature;BME280_humidity;BME280_pressure;Samples;Min_cycle;Max_cycle;Signal;HPM_P1;HPM_P2
2023/07/03 00:00:17;;;;;;;14.43;4.47;;;;;;;16.92;57.82;100928.91;5095224;28;20040;-63
2023/07/03 00:02:45;;;;;;;15.77;4.32;;;;;;;16.86;58.25;100932.53;5095883;28;20045;-64
2023/07/03 00:05:11;;;;;;;15.38;4.03;;;;;;;16.83;57.88;100934.34;5095827;28;20448;-64
2023/07/03 00:07:37;;;;;;;11.80;4.03;;;;;;;16.81;58.03;100926.38;5096079;28;20024;-64
2023/07/03 00:10:04;;;;;;;14.93;4.20;;;;;;;16.83;58.20;100924.59;5095572;28;20074;-63
2023/07/03 00:12:30;;;;;;;17.00;4.25;;;;;;;16.78;58.47;100934.41;5095739;28;20386;-64
2023/07/03 00:14:55;;;;;;;18.02;4.30;;;;;;;16.68;58.89;100917.63;5095559;28;20020;-64
2023/07/03 00:17:20;;;;;;;15.52;4.00;;;;;;;16.64;58.94;100913.22;5095163;28;20447;-64
2023/07/03 00:19:46;;;;;;;21.17;4.22;;;;;;;16.52;59.53;100914.25;5095468;28;20035;-64
2023/07/03 00:22:11;;;;;;;17.40;4.18;;;;;;;16.54;59.34;100914.25;5095519;28;20039;-63
2023/07/03 00:24:36;;;;;;;12.98;4.00;;;;;;;16.58;59.37;100907.97;5095350;28;20032;-64
2023/07/03 00:27:02;;;;;;;19.55;4.57;;;;;;;16.53;59.75;100913.38;5095508;28;20063;-63
2023/07/03 00:29:32;;;;;;;16.83;4.63;;;;;;;16.48;60.26;100915.19;5094839;28;20032;-64
2023/07/03 00:31:58;;;;;;;15.95;4.18;;;;;;;16.45;60.14;100915.25;5095264;28;20069;-63
2023/07/03 00:34:24;;;;;;;17.27;4.40;;;;;;;16.44;60.39;100913.47;5095471;28;20097;-64
2023/07/03 00:36:50;;;;;;;17.00;4.18;;;;;;;16.45;60.46;100917.03;5095306;28;20489;-65
2023/07/03 00:39:15;;;;;;;14.55;4.18;;;;;;;16.42;60.71;100901.94;5095092;28;20076;-64
2023/07/03 00:41:42;;;;;;;20.10;4.50;;;;;;;16.38;60.81;100900.22;5095146;28;20028;-63
2023/07/03 00:44:13;;;;;;;19.73;4.35;;;;;;;16.39;60.76;100911.75;5095398;28;20028;-64
2023/07/03 00:46:40;;;;;;;18.70;4.47;;;;;;;16.35;61.08;100912.69;5094849;28;20473;-64
2023/07/03 00:49:07;;;;;;;16.38;4.45;;;;;;;16.25;61.58;100912.81;5095220;28;20032;-63
2023/07/03 00:51:32;;;;;;;15.73;4.13;;;;;;;16.24;62.01;100902.19;5095076;28;20113;-63
2023/07/03 00:53:58;;;;;;;15.57;4.10;;;;;;;16.19;62.35;100907.56;5094704;28;20071;-63
2023/07/03 00:56:23;;;;;;;21.52;4.70;;;;;;;16.22;62.20;100915.50;5094753;28;20557;-63
2023/07/03 00:58:48;;;;;;;18.20;4.93;;;;;;;16.23;61.96;100908.38;5094779;28;20031;-64
2023/07/03 01:01:34;;;;;;;20.63;4.53;;;;;;;16.27;61.51;100907.44;5094791;28;20036;-64
2023/07/03 01:04:24;;;;;;;17.35;4.20;;;;;;;16.22;62.22;100898.63;5094601;28;20031;-64
2023/07/03 01:06:57;;;;;;;16.95;4.55;;;;;;;16.22;62.17;100904.84;5094906;28;20111;-64
2023/07/03 01:09:27;;;;;;;18.38;4.22;;;;;;;16.23;62.39;100893.28;5077314;28;20102;-64
2023/07/03 01:11:53;;;;;;;14.82;4.25;;;;;;;16.23;62.47;100901.28;5094427;28;20028;-63
2023/07/03 01:14:20;;;;;;;20.98;4.50;;;;;;;16.11;63.01;100900.56;5094542;28;20028;-63
2023/07/03 01:16:48;;;;;;;16.75;4.22;;;;;;;16.10;63.10;100897.00;5094003;28;20143;-63
2023/07/03 01:19:20;;;;;;;19.05;4.38;;;;;;;15.99;63.72;100890.91;5094525;28;20031;-63
2023/07/03 01:22:02;;;;;;;20.23;4.90;;;;;;;16.05;63.43;100898.81;5094479;28;20028;-62
2023/07/03 01:24:48;;;;;;;;;;;;;;;16.19;61.88;100904.91;5094698;28;20024;-64
2023/07/03 01:27:18;;;;;;;15.93;4.10;;;;;;;16.07;63.47;100897.03;5093577;28;20392;-63
2023/07/03 01:29:45;;;;;;;16.80;4.20;;;;;;;16.10;63.60;100896.09;5094517;28;20031;-63
2023/07/03 01:32:13;;;;;;;18.58;4.38;;;;;;;16.05;63.73;100903.25;5094042;28;20031;-63
2023/07/03 01:34:43;;;;;;;16.33;3.97;;;;;;;15.98;64.52;100894.47;5094249;28;20081;-64
2023/07/03 01:37:10;;;;;;;18.55;4.50;;;;;;;15.96;64.79;100907.78;5094062;28;20046;-63
2023/07/03 01:39:37;;;;;;;17.58;4.35;;;;;;;15.94;64.55;100900.72;5093768;28;20028;-63
2023/07/03 01:42:03;;;;;;;22.20;4.95;;;;;;;15.92;65.05;100890.06;5093961;28;20052;-63
2023/07/03 01:44:29;;;;;;;17.67;4.50;;;;;;;15.96;65.00;100899.78;5093820;28;20055;-62
2023/07/03 01:46:54;;;;;;;18.25;4.38;;;;;;;15.95;65.24;100905.16;5093750;28;20089;-63
2023/07/03 01:49:20;;;;;;;22.40;4.72;;;;;;;15.91;65.37;100895.44;5093799;28;20107;-62
2023/07/03 01:51:54;;;;;;;21.45;4.57;;;;;;;15.93;65.19;100888.28;5075833;28;20363;-63
2023/07/03 01:54:35;;;;;;;19.40;4.68;;;;;;;15.89;65.42;100891.91;5093662;28;20024;-64
2023/07/03 01:57:02;;;;;;;25.25;4.75;;;;;;;15.81;66.21;100891.97;5093794;28;20112;-64
2023/07/03 01:59:32;;;;;;;16.15;4.25;;;;;;;15.78;66.52;100889.34;5093823;28;20040;-63
2023/07/03 02:02:07;;;;;;;22.40;4.82;;;;;;;15.76;66.76;100891.16;5093618;28;20473;-64
2023/07/03 02:04:37;;;;;;;26.05;4.65;;;;;;;15.82;66.39;100885.75;5093550;28;20500;-63
2023/07/03 02:07:06;;;;;;;21.98;4.47;;;;;;;15.78;66.95;100890.22;5075390;28;20107;-63
2023/07/03 02:09:32;;;;;;;18.15;4.63;;;;;;;15.74;67.13;100892.94;5093387;28;20451;-64
2023/07/03 02:11:57;;;;;;;20.85;4.75;;;;;;;15.63;68.17;100886.78;5093256;28;20489;-64
2023/07/03 02:14:24;;;;;;;20.38;4.40;;;;;;;15.63;68.12;100881.44;5093681;28;20111;-63
2023/07/03 02:16:53;;;;;;;17.08;4.32;;;;;;;15.61;68.21;100884.13;5092931;28;20054;-62
2023/07/03 02:19:28;;;;;;;19.75;4.45;;;;;;;15.54;68.83;100882.41;5093303;28;20370;-63
2023/07/03 02:21:54;;;;;;;23.42;4.82;;;;;;;15.50;69.19;100892.22;5093614;28;20059;-63
2023/07/03 02:24:19;;;;;;;20.50;4.50;;;;;;;15.48;69.12;100890.47;5093160;28;20116;-64
2023/07/03 02:26:44;;;;;;;26.65;4.95;;;;;;;15.48;69.17;100879.81;5093315;28;20024;-62
2023/07/03 02:29:10;;;;;;;18.13;4.78;;;;;;;15.53;69.28;100884.19;5093360;28;20039;-63
2023/07/03 02:31:35;;;;;;;20.08;4.82;;;;;;;15.51;69.68;100891.34;5074881;28;20539;-64
2023/07/03 02:34:00;;;;;;;19.90;4.97;;;;;;;15.49;69.90;100879.78;5093074;28;20039;-64
2023/07/03 02:36:29;;;;;;;18.90;5.43;;;;;;;15.46;70.33;100877.19;5093018;28;20366;-63
2023/07/03 02:38:55;;;;;;;24.17;4.72;;;;;;;15.43;70.44;100881.66;5074869;28;20032;-64
2023/07/03 02:41:22;;;;;;;19.15;4.38;;;;;;;15.40;71.11;100877.22;5092900;28;20028;-63
2023/07/03 02:43:48;;;;;;;23.70;4.70;;;;;;;15.33;71.37;100877.28;5093258;28;20063;-64
2023/07/03 02:46:13;;;;;;;20.30;5.00;;;;;;;15.26;72.11;100879.13;5093073;28;20527;-62
2023/07/03 02:48:39;;;;;;;20.15;4.93;;;;;;;15.26;71.97;100871.13;5092740;28;20032;-63
2023/07/03 02:51:05;;;;;;;20.33;5.13;;;;;;;15.24;72.12;100867.59;5092982;28;20036;-63
2023/07/03 02:53:30;;;;;;;27.52;4.88;;;;;;;15.20;73.02;100868.50;5078690;28;20030;-63
2023/07/03 02:55:56;;;;;;;23.90;5.15;;;;;;;15.17;73.18;100860.56;5097292;28;20081;-63
2023/07/03 02:58:21;;;;;;;24.77;5.68;;;;;;;15.17;72.91;100868.53;5097152;28;20385;-62
2023/07/03 03:00:46;;;;;;;23.88;5.00;;;;;;;15.11;73.71;100861.47;5097446;28;20031;-63
2023/07/03 03:03:13;;;;;;;24.10;5.13;;;;;;;15.07;73.78;100870.38;5097003;28;20470;-62
2023/07/03 03:05:39;;;;;;;30.27;5.63;;;;;;;14.94;74.95;100855.38;5096991;28;20042;-64
2023/07/03 03:08:04;;;;;;;25.58;5.55;;;;;;;14.91;75.75;100860.75;5078717;28;20039;-64
2023/07/03 03:10:30;;;;;;;25.40;5.32;;;;;;;14.89;75.18;100865.19;5097012;28;20119;-64
2023/07/03 03:12:55;;;;;;;25.95;5.40;;;;;;;14.91;75.47;100866.97;5096923;28;20024;-63
2023/07/03 03:15:21;;;;;;;20.42;4.93;;;;;;;14.92;75.39;100863.41;5097070;28;20031;-64
2023/07/03 03:17:46;;;;;;;24.63;5.63;;;;;;;14.95;75.24;100863.38;5096468;28;20481;-64
2023/07/03 03:20:13;;;;;;;21.08;5.10;;;;;;;14.94;75.70;100863.38;5096575;28;20034;-64
2023/07/03 03:22:40;;;;;;;28.17;5.63;;;;;;;14.92;76.27;100854.53;5096603;28;20102;-64
2023/07/03 03:25:06;;;;;;;23.25;5.22;;;;;;;14.89;76.68;100852.75;5096546;28;20035;-64
2023/07/03 03:27:32;;;;;;;26.00;5.18;;;;;;;14.82;77.29;100858.13;5096486;28;20028;-64
2023/07/03 03:29:57;;;;;;;28.13;5.70;;;;;;;14.78;77.98;100857.28;5096368;28;20076;-63
2023/07/03 03:32:22;;;;;;;25.00;5.65;;;;;;;14.79;77.68;100861.72;5096380;28;20028;-64
2023/07/03 03:34:48;;;;;;;29.83;5.45;;;;;;;14.80;78.06;100863.47;5096463;28;20056;-63
2023/07/03 03:37:13;;;;;;;24.73;5.20;;;;;;;14.78;78.51;100855.50;5096269;28;20099;-63
2023/07/03 03:39:38;;;;;;;27.92;5.40;;;;;;;14.75;78.58;100859.97;5096240;28;20485;-63
2023/07/03 03:42:04;;;;;;;23.77;5.50;;;;;;;14.72;79.16;100862.63;5096360;28;20031;-63
2023/07/03 03:44:30;;;;;;;28.80;5.57;;;;;;;14.68;79.77;100855.56;5096179;28;20085;-63
2023/07/03 03:46:55;;;;;;;25.40;5.82;;;;;;;14.63;80.41;100857.38;5096037;28;20051;-64
2023/07/03 03:49:21;;;;;;;27.38;5.32;;;;;;;14.66;80.01;100860.91;5096205;28;20542;-63
2023/07/03 03:51:47;;;;;;;29.30;5.75;;;;;;;14.73;79.50;100864.38;5096324;28;20020;-64
2023/07/03 03:54:13;;;;;;;30.67;6.03;;;;;;;14.75;79.47;100859.97;5095771;28;20142;-64
2023/07/03 03:56:38;;;;;;;27.05;5.93;;;;;;;14.73;80.10;100853.75;5077746;28;20024;-63
2023/07/03 03:59:03;;;;;;;25.02;5.97;;;;;;;14.75;79.90;100851.97;5095880;28;20024;-63
2023/07/03 04:01:29;;;;;;;24.85;5.30;;;;;;;14.80;80.10;100867.91;5095880;28;20020;-63
2023/07/03 04:03:55;;;;;;;26.40;5.32;;;;;;;14.83;79.83;100867.91;5095785;28;20040;-63
2023/07/03 04:06:20;;;;;;;31.45;5.72;;;;;;;14.83;79.48;100859.91;5096056;28;20473;-63
2023/07/03 04:08:46;;;;;;;27.48;5.53;;;;;;;14.81;80.25;100867.88;5096013;28;20025;-63
2023/07/03 04:11:11;;;;;;;28.33;6.07;;;;;;;14.78;80.68;100878.56;5095735;28;20087;-63
2023/07/03 04:13:37;;;;;;;24.50;5.70;;;;;;;14.78;81.08;100876.78;5095832;28;20055;-63
2023/07/03 04:16:04;;;;;;;24.10;5.68;;;;;;;14.76;81.21;100881.22;5095551;28;20409;-63
2023/07/03 04:18:30;;;;;;;24.58;5.43;;;;;;;14.68;81.87;100869.75;5095469;28;20531;-62
2023/07/03 04:20:57;;;;;;;23.65;6.25;;;;;;;14.70;81.74;100867.09;5095667;28;20093;-63
2023/07/03 04:23:23;;;;;;;26.95;5.82;;;;;;;14.70;81.83;100867.97;5095472;28;20081;-63
2023/07/03 04:25:49;;;;;;;26.08;5.57;;;;;;;14.74;82.03;100864.41;5095320;28;20388;-63
2023/07/03 04:28:19;;;;;;;31.90;6.15;;;;;;;14.76;81.99;100870.56;5077408;28;20120;-64
2023/07/03 04:30:46;;;;;;;27.58;5.65;;;;;;;14.80;82.17;100868.78;5077180;28;20469;-64
2023/07/03 04:33:11;;;;;;;26.45;5.50;;;;;;;14.85;81.70;100859.00;5095373;28;20055;-64
2023/07/03 04:35:37;;;;;;;23.88;5.43;;;;;;;14.82;82.74;100859.03;5095239;28;20055;-64
2023/07/03 04:38:03;;;;;;;24.40;5.63;;;;;;;14.92;81.23;100875.81;5095291;28;20067;-64
2023/07/03 04:40:29;;;;;;;28.10;5.72;;;;;;;14.93;81.67;100861.63;5095107;28;20058;-64
2023/07/03 04:42:55;;;;;;;23.65;5.38;;;;;;;14.93;82.24;100874.91;5095426;28;20031;-63
2023/07/03 04:45:21;;;;;;;25.65;5.68;;;;;;;14.91;82.37;100874.06;5095354;28;20034;-63
2023/07/03 04:47:47;;;;;;;27.98;6.32;;;;;;;14.89;82.64;100875.81;5095048;28;20028;-64
2023/07/03 04:50:17;;;;;;;28.25;6.18;;;;;;;14.88;82.83;100874.06;5095010;28;20024;-64
2023/07/03 04:52:43;;;;;;;21.95;5.60;;;;;;;14.94;82.51;100882.00;5094831;28;20028;-64
2023/07/03 04:55:11;;;;;;;24.58;5.65;;;;;;;15.03;82.24;100889.91;5095047;28;20089;-64
2023/07/03 04:57:38;;;;;;;32.30;6.18;;;;;;;15.09;82.22;100889.88;5094796;28;20461;-64
2023/07/03 05:00:16;;;;;;;29.00;5.88;;;;;;;15.13;81.54;100891.63;5095009;28;20020;-64
2023/07/03 05:02:46;;;;;;;22.73;5.80;;;;;;;15.16;81.37;100894.28;5094785;28;20477;-64
2023/07/03 05:05:13;;;;;;;23.02;5.63;;;;;;;15.20;81.13;100896.03;5094975;28;20458;-64
2023/07/03 05:07:39;;;;;;;23.70;5.47;;;;;;;15.28;80.66;100895.94;5094634;28;20032;-63
2023/07/03 05:10:05;;;;;;;25.65;5.47;;;;;;;15.25;81.15;100890.66;5094636;28;20040;-64
2023/07/03 05:12:31;;;;;;;31.38;5.63;;;;;;;15.27;81.12;100904.84;5094256;28;20021;-64
2023/07/03 05:14:56;;;;;;;24.70;6.03;;;;;;;15.31;80.46;100905.69;5093765;28;20062;-64
2023/07/03 05:17:22;;;;;;;27.63;5.97;;;;;;;15.27;80.77;100904.84;5093893;28;20044;-64
2023/07/03 05:19:48;;;;;;;28.05;6.45;;;;;;;15.27;81.12;100905.72;5094430;28;20035;-64
2023/07/03 05:22:13;;;;;;;23.48;5.43;;;;;;;15.38;79.74;100900.31;5094352;28;20389;-64
2023/07/03 05:24:39;;;;;;;22.80;6.05;;;;;;;15.49;79.63;100905.53;5094096;28;20025;-63
2023/07/03 05:27:05;;;;;;;23.50;5.40;;;;;;;15.65;79.11;100901.00;5094118;28;20028;-64
2023/07/03 05:29:32;;;;;;;23.17;5.47;;;;;;;15.80;79.52;100911.50;5094326;28;20031;-64
2023/07/03 05:32:00;;;;;;;24.27;5.38;;;;;;;15.91;79.03;100920.28;5094408;28;20020;-64
2023/07/03 05:34:26;;;;;;;25.38;5.28;;;;;;;16.08;78.21;100927.22;5094000;28;20118;-64
2023/07/03 05:36:51;;;;;;;27.33;5.57;;;;;;;16.30;77.63;100919.88;5094264;28;20093;-63
2023/07/03 05:39:17;;;;;;;20.75;5.60;;;;;;;16.52;76.64;100924.03;5093869;28;20466;-64
2023/07/03 05:41:42;;;;;;;30.02;6.10;;;;;;;16.66;75.37;100914.09;5075866;28;20126;-64
2023/07/03 05:44:07;;;;;;;22.95;5.40;;;;;;;16.65;74.90;100909.63;5093819;28;20078;-64
2023/07/03 05:46:33;;;;;;;26.25;6.03;;;;;;;16.63;75.36;100924.81;5093783;28;20024;-63
2023/07/03 05:48:58;;;;;;;22.02;5.80;;;;;;;16.63;75.28;100927.47;5093735;28;20473;-64
2023/07/03 05:51:24;;;;;;;22.58;5.03;;;;;;;16.60;74.86;100923.97;5093917;28;20085;-63
2023/07/03 05:53:50;;;;;;;24.60;5.55;;;;;;;16.54;75.05;100935.59;5093690;28;20028;-64
2023/07/03 05:56:15;;;;;;;20.33;5.63;;;;;;;16.46;75.38;100925.00;5093672;28;20512;-63
2023/07/03 05:58:40;;;;;;;22.50;5.75;;;;;;;16.45;75.46;100923.25;5093541;28;20074;-64
2023/07/03 06:01:06;;;;;;;21.13;5.20;;;;;;;16.43;75.50;100937.50;5093726;28;20020;-64
2023/07/03 06:03:31;;;;;;;21.27;5.20;;;;;;;16.40;75.40;100927.78;5075398;28;20077;-64
2023/07/03 06:05:57;;;;;;;25.40;5.75;;;;;;;16.37;75.65;100932.25;5075387;28;20399;-64
2023/07/03 06:08:23;;;;;;;23.08;5.65;;;;;;;16.36;76.00;100928.69;5093583;28;20024;-64
2023/07/03 06:10:48;;;;;;;22.10;5.60;;;;;;;16.40;75.90;100933.09;5093346;28;20047;-64
2023/07/03 06:13:14;;;;;;;23.45;5.45;;;;;;;16.44;75.73;100926.78;5093414;28;20032;-64
2023/07/03 06:15:40;;;;;;;29.08;6.40;;;;;;;16.48;75.05;100932.97;5093301;28;20032;-64
2023/07/03 06:18:06;;;;;;;25.67;5.88;;;;;;;16.52;75.19;100934.72;5053040;28;20044;-64
2023/07/03 06:20:32;;;;;;;20.33;5.20;;;;;;;16.52;75.41;100932.94;5053118;28;20063;-62
2023/07/03 06:22:57;;;;;;;24.20;5.50;;;;;;;16.57;75.18;100935.53;5053304;28;20029;-61
2023/07/03 06:25:23;;;;;;;27.05;5.65;;;;;;;16.60;74.54;100932.84;5053275;28;20382;-64
2023/07/03 06:27:48;;;;;;;23.90;5.97;;;;;;;16.63;74.56;100938.13;5052304;28;20029;-62
2023/07/03 06:30:14;;;;;;;22.95;5.55;;;;;;;16.66;74.04;100940.78;5052943;28;20029;-64
2023/07/03 06:32:39;;;;;;;21.77;5.00;;;;;;;16.65;74.55;100935.44;5053076;28;20082;-64
2023/07/03 06:35:07;;;;;;;21.40;5.38;;;;;;;16.70;74.99;100931.84;5052947;28;20025;-64
2023/07/03 06:37:33;;;;;;;20.05;5.63;;;;;;;16.77;74.02;100944.22;5052882;28;20111;-64
2023/07/03 06:39:58;;;;;;;21.73;5.75;;;;;;;16.84;73.57;100934.34;5052990;28;20025;-64
2023/07/03 06:42:24;;;;;;;19.85;4.88;;;;;;;16.91;73.15;100935.13;5052804;28;20494;-64
2023/07/03 06:44:50;;;;;;;23.65;4.95;;;;;;;16.95;72.79;100935.06;5052906;28;20032;-64
2023/07/03 06:47:15;;;;;;;21.17;5.32;;;;;;;16.97;72.88;100945.75;5052692;28;20478;-65
2023/07/03 06:49:40;;;;;;;20.17;5.20;;;;;;;17.01;72.38;100939.44;5053074;28;20083;-64
2023/07/03 06:52:09;;;;;;;25.08;4.95;;;;;;;16.96;72.06;100936.84;5052649;28;20055;-61
2023/07/03 06:54:34;;;;;;;19.48;4.90;;;;;;;17.05;71.70;100934.97;5052622;28;20029;-64
2023/07/03 06:57:00;;;;;;;19.73;4.47;;;;;;;17.02;71.47;100936.75;5052687;28;20028;-64
2023/07/03 06:59:25;;;;;;;20.52;4.75;;;;;;;17.12;71.28;100929.47;5052725;28;20021;-64
2023/07/03 07:01:51;;;;;;;17.27;4.65;;;;;;;17.23;71.23;100927.53;5052682;28;20104;-64
2023/07/03 07:04:16;;;;;;;19.05;4.45;;;;;;;17.32;70.39;100933.66;5034787;28;20394;-62
2023/07/03 07:06:42;;;;;;;18.05;5.28;;;;;;;17.38;70.21;100929.06;5051438;28;20021;-62
2023/07/03 07:09:07;;;;;;;21.40;4.95;;;;;;;17.49;69.71;100928.91;5052456;28;20036;-64
2023/07/03 07:11:34;;;;;;;20.30;4.93;;;;;;;17.55;69.97;100942.16;5052502;28;20025;-64
2023/07/03 07:14:03;;;;;;;25.42;5.57;;;;;;;17.63;69.94;100942.91;5052454;28;20025;-63
2023/07/03 07:16:36;;;;;;;20.83;4.95;;;;;;;17.71;68.70;100954.38;5057703;28;20072;-63
2023/07/03 07:19:04;;;;;;;17.75;4.97;;;;;;;17.71;68.42;100946.34;5072539;28;20082;-62
2023/07/03 07:21:32;;;;;;;22.48;4.97;;;;;;;17.72;67.88;100944.56;5072460;28;20024;-63
2023/07/03 07:24:00;;;;;;;21.42;4.93;;;;;;;17.76;68.45;100946.31;5072418;28;20035;-63
2023/07/03 07:26:33;;;;;;;21.90;4.93;;;;;;;17.89;68.45;100950.53;5072362;28;20506;-63
2023/07/03 07:28:59;;;;;;;16.90;4.85;;;;;;;18.01;67.64;100957.44;5072932;28;20039;-63
2023/07/03 07:31:26;;;;;;;23.30;4.80;;;;;;;18.07;65.78;100951.97;5072354;28;20158;-63
2023/07/03 07:33:52;;;;;;;22.85;4.97;;;;;;;18.15;66.16;100949.16;5072317;28;20021;-62
2023/07/03 07:36:20;;;;;;;21.90;4.90;;;;;;;18.37;64.99;100947.88;5072368;28;20520;-63
2023/07/03 07:38:45;;;;;;;19.42;4.45;;;;;;;18.49;64.02;100958.31;5074617;28;20081;-63
2023/07/03 07:41:11;;;;;;;17.88;5.13;;;;;;;18.50;63.04;100956.53;5075970;28;20111;-62
2023/07/03 07:43:37;;;;;;;19.27;5.30;;;;;;;18.52;63.55;100952.91;5075968;28;20032;-62
2023/07/03 07:46:03;;;;;;;19.90;4.88;;;;;;;18.56;62.75;100963.53;5075937;28;20165;-62
2023/07/03 07:48:28;;;;;;;24.95;5.35;;;;;;;18.74;62.91;100960.50;5075735;28;20029;-62
2023/07/03 07:50:54;;;;;;;16.67;4.93;;;;;;;18.96;62.55;100958.25;5075857;28;20490;-62
2023/07/03 07:53:19;;;;;;;19.73;4.95;;;;;;;19.24;61.29;100962.09;5074506;28;20034;-62
2023/07/03 07:55:45;;;;;;;17.13;4.45;;;;;;;19.39;60.53;100952.78;5076039;28;20036;-63
2023/07/03 07:58:11;;;;;;;16.88;4.15;;;;;;;19.48;59.75;100955.22;5075728;28;20036;-63
2023/07/03 08:00:36;;;;;;;19.75;4.95;;;;;;;19.43;59.86;100964.31;5075736;28;20474;-63
2023/07/03 08:03:02;;;;;;;15.65;4.45;;;;;;;19.38;59.37;100956.38;5075652;28;20036;-62
2023/07/03 08:05:27;;;;;;;19.52;4.60;;;;;;;19.43;59.12;100969.69;5075602;28;20461;-63
2023/07/03 08:07:53;;;;;;;15.88;4.57;;;;;;;19.50;58.17;100972.19;5075591;28;20111;-63
2023/07/03 08:10:19;;;;;;;19.92;4.47;;;;;;;19.65;57.89;100965.59;5075677;28;20024;-62
2023/07/03 08:12:45;;;;;;;20.35;4.85;;;;;;;19.69;57.48;100971.75;5075413;28;20028;-62
2023/07/03 08:15:11;;;;;;;17.95;4.85;;;;;;;19.71;55.97;100976.16;5075444;28;20470;-62
2023/07/03 08:17:36;;;;;;;15.25;4.53;;;;;;;19.63;56.52;100975.47;5091252;28;20090;-62
2023/07/03 08:20:01;;;;;;;21.65;4.43;;;;;;;19.57;56.34;100977.38;5095517;28;20456;-61
2023/07/03 08:22:27;;;;;;;21.55;4.43;;;;;;;19.54;56.96;100974.78;5095505;28;20481;-62
2023/07/03 08:24:53;;;;;;;14.85;3.83;;;;;;;19.49;56.06;100981.16;5095658;28;20032;-62
2023/07/03 08:27:18;;;;;;;14.90;4.10;;;;;;;19.49;56.14;100982.94;5095418;28;20477;-62
2023/07/03 08:29:46;;;;;;;18.83;4.10;;;;;;;19.41;56.62;100984.94;5095500;28;20028;-62
2023/07/03 08:32:11;;;;;;;22.35;4.55;;;;;;;19.20;56.88;100987.19;5095532;28;20043;-61
2023/07/03 08:34:37;;;;;;;18.77;4.15;;;;;;;19.17;57.35;100984.56;5095503;28;20469;-62
2023/07/03 08:37:02;;;;;;;16.27;4.35;;;;;;;19.14;57.09;100983.75;5095469;28;20385;-62
2023/07/03 08:39:28;;;;;;;18.13;4.40;;;;;;;19.11;57.11;100991.88;5095220;28;20465;-62
2023/07/03 08:42:02;;;;;;;15.82;4.15;;;;;;;19.07;57.07;100991.03;5095415;28;20461;-62
2023/07/03 08:44:28;;;;;;;16.50;3.90;;;;;;;19.06;56.46;100991.97;5095103;28;20035;-62
2023/07/03 08:46:57;;;;;;;13.70;4.03;;;;;;;19.08;56.60;101005.31;5095017;28;20032;-62
2023/07/03 08:49:23;;;;;;;15.60;3.85;;;;;;;19.11;56.65;101007.94;5094330;28;20024;-61
2023/07/03 08:51:54;;;;;;;16.00;4.47;;;;;;;19.14;56.14;100999.81;5094910;28;20021;-62
2023/07/03 08:54:27;;;;;;;14.75;4.15;;;;;;;19.18;56.02;100998.81;5095195;28;20024;-62
2023/07/03 08:56:54;;;;;;;17.50;4.07;;;;;;;19.27;56.18;100999.53;5095101;28;20401;-61
2023/07/03 08:59:20;;;;;;;17.70;4.03;;;;;;;19.36;56.69;101001.13;5095405;28;20066;-62
2023/07/03 09:02:03;;;;;;;16.83;4.68;;;;;;;19.61;55.87;100998.75;5094719;28;20426;-62
2023/07/03 09:05:16;;;;;;;16.55;4.30;;;;;;;19.80;54.76;100998.31;5095147;28;20362;-63
2023/07/03 09:07:47;;;;;;;;;;;;;;;19.96;55.05;100999.69;5013055;28;20040;-62
2023/07/03 09:10:27;;;;;;;14.70;4.03;;;;;;;19.88;53.62;101009.75;5080149;28;19982;-61
2023/07/03 09:13:05;;;;;;;14.40;4.05;;;;;;;19.70;53.50;100995.88;5094813;28;20074;-61
2023/07/03 09:15:35;;;;;;;17.52;4.13;;;;;;;19.56;53.87;100992.59;5094619;28;20511;-62
2023/07/03 09:18:06;;;;;;;17.30;4.75;;;;;;;19.56;54.17;100995.25;5094125;28;20481;-62
2023/07/03 09:20:32;;;;;;;15.50;4.20;;;;;;;19.54;53.80;100994.44;5094476;28;20111;-62
2023/07/03 09:23:04;;;;;;;14.80;4.20;;;;;;;19.58;53.86;100997.94;5094438;28;20205;-62
2023/07/03 09:25:42;;;;;;;15.27;4.28;;;;;;;19.71;54.49;100994.06;5094278;28;20512;-62
2023/07/03 09:28:09;;;;;;;19.92;5.18;;;;;;;19.85;54.46;100991.91;5094202;28;20044;-62
2023/07/03 09:30:35;;;;;;;15.23;4.35;;;;;;;20.01;54.13;100987.03;5094275;28;20121;-61
2023/07/03 09:33:01;;;;;;;20.23;5.15;;;;;;;20.15;53.56;100984.88;5094281;28;20024;-62
2023/07/03 09:35:35;;;;;;;20.98;5.20;;;;;;;20.37;53.88;100993.22;5094402;28;20027;-61
2023/07/03 09:38:01;;;;;;;17.80;4.50;;;;;;;20.50;53.79;100983.94;5094139;28;20457;-61
2023/07/03 09:40:33;;;;;;;19.27;5.03;;;;;;;20.41;51.88;100994.91;5093926;28;20508;-62
2023/07/03 09:43:00;;;;;;;17.27;5.35;;;;;;;20.32;53.66;101002.31;5075883;28;20020;-62
2023/07/03 09:45:33;;;;;;;15.93;4.57;;;;;;;20.17;52.36;100990.19;5093936;28;20032;-62
2023/07/03 09:48:02;;;;;;;19.92;4.75;;;;;;;20.13;52.01;101001.94;5094054;28;20030;-62
2023/07/03 09:50:35;;;;;;;15.13;4.72;;;;;;;20.14;51.92;101003.69;5094001;28;20103;-62
2023/07/03 09:53:02;;;;;;;15.48;4.95;;;;;;;20.32;52.14;100994.28;5093985;28;20027;-62
2023/07/03 09:55:29;;;;;;;19.02;5.07;;;;;;;20.42;51.51;101001.13;5075471;28;20048;-62
2023/07/03 09:57:54;;;;;;;13.30;4.70;;;;;;;20.57;51.33;100998.06;5093818;28;20350;-62
2023/07/03 10:00:25;;;;;;;17.98;4.70;;;;;;;20.66;50.78;101002.31;5075653;28;20506;-62
2023/07/03 10:02:57;;;;;;;18.55;5.35;;;;;;;20.74;51.90;100997.59;5093583;28;20477;-62
2023/07/03 10:05:33;;;;;;;15.90;4.85;;;;;;;20.84;51.87;100995.53;5093594;28;20519;-63
2023/07/03 10:08:04;;;;;;;20.23;5.20;;;;;;;21.05;51.45;100997.56;5093601;28;20066;-62
2023/07/03 10:10:33;;;;;;;15.63;4.95;;;;;;;21.44;48.87;101008.91;5093376;28;20028;-61
2023/07/03 10:13:23;;;;;;;17.15;4.82;;;;;;;21.74;47.89;100998.09;5093495;28;20024;-63
2023/07/03 10:15:51;;;;;;;10.95;4.40;;;;;;;21.90;45.22;101009.25;5093531;28;20073;-63
2023/07/03 10:18:31;;;;;;;15.00;4.85;;;;;;;22.02;45.54;101000.75;5093499;28;20040;-63
2023/07/03 10:20:58;;;;;;;15.10;4.80;;;;;;;22.07;45.37;101005.97;5093443;28;20032;-62
2023/07/03 10:23:27;;;;;;;16.67;4.85;;;;;;;21.99;44.73;101003.56;5093498;28;20382;-63
2023/07/03 10:25:58;;;;;;;17.58;4.47;;;;;;;21.94;44.99;101014.47;5093428;28;20529;-63
2023/07/03 10:28:31;;;;;;;13.73;4.32;;;;;;;21.84;43.41;101014.81;5093324;28;20020;-63
2023/07/03 10:31:08;;;;;;;14.60;4.55;;;;;;;21.60;44.61;101013.81;5093256;28;20114;-62
2023/07/03 10:33:42;;;;;;;12.88;4.57;;;;;;;21.48;44.56;101015.09;5093199;28;20032;-64
2023/07/03 10:36:14;;;;;;;20.75;4.30;;;;;;;21.35;44.74;101001.16;5093048;28;20113;-63
2023/07/03 10:39:20;;;;;;;18.88;4.40;;;;;;;21.37;45.81;101011.84;5093314;28;20035;-63
2023/07/03 10:41:56;;;;;;;12.38;4.32;;;;;;;21.40;45.14;101001.00;5093117;28;20080;-61
2023/07/03 10:44:26;;;;;;;15.10;4.43;;;;;;;21.54;44.98;100997.88;5092826;28;20032;-62
2023/07/03 10:46:59;;;;;;;17.08;4.53;;;;;;;21.65;45.06;101004.66;5092862;28;20040;-62
2023/07/03 10:49:29;;;;;;;15.82;4.35;;;;;;;21.66;44.41;101008.22;5092869;28;20030;-62
2023/07/03 10:52:19;;;;;;;13.20;4.05;;;;;;;21.62;43.74;101007.44;5093204;28;20028;-63
2023/07/03 10:54:50;;;;;;;14.02;4.38;;;;;;;21.40;44.06;101009.06;5092948;28;20032;-62
2023/07/03 10:57:25;;;;;;;12.37;4.40;;;;;;;21.20;44.25;101002.50;5092907;28;20024;-62
2023/07/03 10:59:58;;;;;;;13.63;4.43;;;;;;;21.13;44.74;101010.78;5092838;28;20258;-61
2023/07/03 11:02:43;;;;;;;14.02;3.70;;;;;;;21.28;44.98;101021.03;5092876;28;20028;-62
2023/07/03 11:05:19;;;;;;;12.25;3.70;;;;;;;21.56;43.42;101014.84;5092242;28;20037;-62
2023/07/03 11:07:59;;;;;;;13.55;3.45;;;;;;;21.82;42.84;101008.63;5092824;28;20051;-62
2023/07/03 11:10:38;;;;;;;9.27;2.88;;;;;;;22.44;42.24;101003.81;5092957;28;20020;-62
2023/07/03 11:13:16;;;;;;;14.18;3.33;;;;;;;22.86;39.11;101011.22;5093994;28;20537;-63
2023/07/03 11:16:01;;;;;;;10.77;3.70;;;;;;;23.05;39.15;101013.28;5096589;28;20024;-62
2023/07/03 11:18:39;;;;;;;7.85;3.22;;;;;;;23.20;38.88;100997.34;5090486;28;20107;-63
2023/07/03 11:21:24;;;;;;;9.60;3.35;;;;;;;23.59;38.57;100998.53;5096862;28;20028;-62